Burrville, Utah
Current Conditions -  °F | °C
As of 3:55 PM on Thursday 18 Dec 2014 (Local Time) from KDTA Reporting Station
Clear Clear  
Wind Chill: 43°   Ceiling: Unl
Heat Index: 43°   Visibility: 10mi
Dew Point: 27°   Wind: 3mph
Humidity: 53%   Direction: 200°SSW
Pressure: 30.13"   Gusts: NA
Location:  38.7083°N, 111.729°W
Report Text: KDTA 182255Z AUTO 20003KT 10SM CLR 06/M03 A3013 RMK AO1 T00631027
Loading
Personal Weather Stations






























Interactive Weather Map New forecast layout! Learn more

10-Day Weather Forecast

Advertisements
Track Severe Weather on mobile